sensor_id;sensor_type;location;lat;lon;timestamp;P1;durP1;ratioP1;P2;durP2;ratioP2
76292;SDS011;67256;51.154;4.164;2024-03-02T00:00:20;2.40;;;0.57;;
76292;SDS011;67256;51.154;4.164;2024-03-02T00:02:47;2.03;;;0.90;;
76292;SDS011;67256;51.154;4.164;2024-03-02T00:05:18;2.05;;;0.80;;
76292;SDS011;67256;51.154;4.164;2024-03-02T00:07:45;1.08;;;0.73;;
76292;SDS011;67256;51.154;4.164;2024-03-02T00:10:19;2.30;;;0.57;;
76292;SDS011;67256;51.154;4.164;2024-03-02T00:12:48;2.40;;;0.70;;
76292;SDS011;67256;51.154;4.164;2024-03-02T00:18:11;2.80;;;0.70;;
76292;SDS011;67256;51.154;4.164;2024-03-02T00:23:04;2.15;;;0.60;;
76292;SDS011;67256;51.154;4.164;2024-03-02T00:25:50;1.73;;;0.70;;
76292;SDS011;67256;51.154;4.164;2024-03-02T00:28:25;2.35;;;0.55;;
76292;SDS011;67256;51.154;4.164;2024-03-02T00:33:44;0.80;;;0.50;;
76292;SDS011;67256;51.154;4.164;2024-03-02T00:36:14;1.35;;;0.60;;
76292;SDS011;67256;51.154;4.164;2024-03-02T00:43:59;2.15;;;0.60;;
76292;SDS011;67256;51.154;4.164;2024-03-02T00:46:27;3.03;;;1.25;;
76292;SDS011;67256;51.154;4.164;2024-03-02T00:48:59;1.75;;;0.65;;
76292;SDS011;67256;51.154;4.164;2024-03-02T00:51:29;0.60;;;0.50;;
76292;SDS011;67256;51.154;4.164;2024-03-02T00:54:00;1.70;;;0.57;;
76292;SDS011;67256;51.154;4.164;2024-03-02T00:56:29;0.93;;;0.47;;
76292;SDS011;67256;51.154;4.164;2024-03-02T00:58:55;1.23;;;0.50;;
76292;SDS011;67256;51.154;4.164;2024-03-02T01:01:21;2.88;;;0.50;;
76292;SDS011;67256;51.154;4.164;2024-03-02T01:03:48;1.83;;;0.68;;
76292;SDS011;67256;51.154;4.164;2024-03-02T01:06:14;2.13;;;0.68;;
76292;SDS011;67256;51.154;4.164;2024-03-02T01:08:43;1.23;;;0.55;;
76292;SDS011;67256;51.154;4.164;2024-03-02T01:11:09;1.02;;;0.70;;
76292;SDS011;67256;51.154;4.164;2024-03-02T01:13:35;2.00;;;0.73;;
76292;SDS011;67256;51.154;4.164;2024-03-02T01:16:01;1.42;;;0.70;;
76292;SDS011;67256;51.154;4.164;2024-03-02T01:18:27;1.75;;;0.70;;
76292;SDS011;67256;51.154;4.164;2024-03-02T01:20:54;2.53;;;0.85;;
76292;SDS011;67256;51.154;4.164;2024-03-02T01:23:23;2.33;;;0.90;;
76292;SDS011;67256;51.154;4.164;2024-03-02T01:25:49;1.80;;;0.60;;
76292;SDS011;67256;51.154;4.164;2024-03-02T01:28:15;1.10;;;0.70;;
76292;SDS011;67256;51.154;4.164;2024-03-02T01:30:41;1.27;;;0.70;;
76292;SDS011;67256;51.154;4.164;2024-03-02T01:33:07;0.73;;;0.70;;
76292;SDS011;67256;51.154;4.164;2024-03-02T01:35:33;2.40;;;1.08;;
76292;SDS011;67256;51.154;4.164;2024-03-02T01:38:00;1.85;;;0.65;;
76292;SDS011;67256;51.154;4.164;2024-03-02T01:40:26;2.10;;;0.98;;
76292;SDS011;67256;51.154;4.164;2024-03-02T01:42:53;3.33;;;0.90;;
76292;SDS011;67256;51.154;4.164;2024-03-02T01:45:20;1.65;;;0.85;;
76292;SDS011;67256;51.154;4.164;2024-03-02T01:47:45;0.90;;;0.60;;
76292;SDS011;67256;51.154;4.164;2024-03-02T01:50:11;2.70;;;0.90;;
76292;SDS011;67256;51.154;4.164;2024-03-02T01:52:38;2.50;;;0.73;;
76292;SDS011;67256;51.154;4.164;2024-03-02T01:55:04;2.80;;;0.75;;
76292;SDS011;67256;51.154;4.164;2024-03-02T01:57:31;1.60;;;0.93;;
76292;SDS011;67256;51.154;4.164;2024-03-02T01:59:57;2.40;;;1.00;;
76292;SDS011;67256;51.154;4.164;2024-03-02T02:02:24;2.47;;;1.23;;
76292;SDS011;67256;51.154;4.164;2024-03-02T02:04:50;1.77;;;0.90;;
76292;SDS011;67256;51.154;4.164;2024-03-02T02:07:15;2.53;;;0.60;;
76292;SDS011;67256;51.154;4.164;2024-03-02T02:09:41;1.77;;;0.80;;
76292;SDS011;67256;51.154;4.164;2024-03-02T02:12:09;1.70;;;0.80;;
76292;SDS011;67256;51.154;4.164;2024-03-02T02:14:35;2.00;;;0.93;;
76292;SDS011;67256;51.154;4.164;2024-03-02T02:17:01;1.23;;;0.60;;
76292;SDS011;67256;51.154;4.164;2024-03-02T02:19:27;1.65;;;0.70;;
76292;SDS011;67256;51.154;4.164;2024-03-02T02:21:53;1.10;;;0.70;;
76292;SDS011;67256;51.154;4.164;2024-03-02T02:24:20;1.40;;;0.60;;
76292;SDS011;67256;51.154;4.164;2024-03-02T02:26:46;1.77;;;0.93;;
76292;SDS011;67256;51.154;4.164;2024-03-02T02:29:11;1.42;;;0.77;;
76292;SDS011;67256;51.154;4.164;2024-03-02T02:31:37;1.90;;;1.00;;
76292;SDS011;67256;51.154;4.164;2024-03-02T02:34:04;3.03;;;0.80;;
76292;SDS011;67256;51.154;4.164;2024-03-02T02:36:30;1.73;;;0.80;;
76292;SDS011;67256;51.154;4.164;2024-03-02T02:38:57;3.83;;;0.90;;
76292;SDS011;67256;51.154;4.164;2024-03-02T02:41:25;0.85;;;0.63;;
76292;SDS011;67256;51.154;4.164;2024-03-02T02:43:51;2.40;;;0.80;;
76292;SDS011;67256;51.154;4.164;2024-03-02T02:46:17;1.10;;;0.82;;
76292;SDS011;67256;51.154;4.164;2024-03-02T02:48:42;8.15;;;1.20;;
76292;SDS011;67256;51.154;4.164;2024-03-02T02:51:08;1.65;;;0.80;;
76292;SDS011;67256;51.154;4.164;2024-03-02T02:53:34;2.72;;;0.95;;
76292;SDS011;67256;51.154;4.164;2024-03-02T02:56:00;2.33;;;0.88;;
76292;SDS011;67256;51.154;4.164;2024-03-02T02:58:26;3.85;;;0.90;;
76292;SDS011;67256;51.154;4.164;2024-03-02T03:00:52;2.72;;;0.90;;
76292;SDS011;67256;51.154;4.164;2024-03-02T03:03:21;2.60;;;0.77;;
76292;SDS011;67256;51.154;4.164;2024-03-02T03:05:48;2.05;;;0.90;;
76292;SDS011;67256;51.154;4.164;2024-03-02T03:08:14;3.85;;;1.00;;
76292;SDS011;67256;51.154;4.164;2024-03-02T03:10:41;2.55;;;1.10;;
76292;SDS011;67256;51.154;4.164;2024-03-02T03:13:07;4.05;;;1.05;;
76292;SDS011;67256;51.154;4.164;2024-03-02T03:15:34;3.08;;;0.88;;
76292;SDS011;67256;51.154;4.164;2024-03-02T03:18:01;2.80;;;1.10;;
76292;SDS011;67256;51.154;4.164;2024-03-02T03:20:29;2.63;;;0.93;;
76292;SDS011;67256;51.154;4.164;2024-03-02T03:22:55;3.45;;;1.38;;
76292;SDS011;67256;51.154;4.164;2024-03-02T03:25:21;4.03;;;1.08;;
76292;SDS011;67256;51.154;4.164;2024-03-02T03:27:47;2.97;;;0.90;;
76292;SDS011;67256;51.154;4.164;2024-03-02T03:30:13;2.95;;;0.98;;
76292;SDS011;67256;51.154;4.164;2024-03-02T03:32:39;3.30;;;0.98;;
76292;SDS011;67256;51.154;4.164;2024-03-02T03:35:05;2.92;;;0.73;;
76292;SDS011;67256;51.154;4.164;2024-03-02T03:37:31;2.67;;;1.15;;
76292;SDS011;67256;51.154;4.164;2024-03-02T03:40:01;3.25;;;0.88;;
76292;SDS011;67256;51.154;4.164;2024-03-02T03:42:28;2.42;;;0.75;;
76292;SDS011;67256;51.154;4.164;2024-03-02T03:44:54;2.63;;;0.88;;
76292;SDS011;67256;51.154;4.164;2024-03-02T03:47:20;1.40;;;0.77;;
76292;SDS011;67256;51.154;4.164;2024-03-02T03:49:46;2.25;;;0.65;;
76292;SDS011;67256;51.154;4.164;2024-03-02T03:52:11;1.60;;;0.80;;
76292;SDS011;67256;51.154;4.164;2024-03-02T03:54:37;3.40;;;0.88;;
76292;SDS011;67256;51.154;4.164;2024-03-02T03:57:03;3.17;;;0.95;;
76292;SDS011;67256;51.154;4.164;2024-03-02T03:59:29;2.83;;;1.13;;
76292;SDS011;67256;51.154;4.164;2024-03-02T04:01:56;3.83;;;1.13;;
76292;SDS011;67256;51.154;4.164;2024-03-02T04:04:21;3.22;;;0.80;;
76292;SDS011;67256;51.154;4.164;2024-03-02T04:06:47;1.70;;;1.15;;
76292;SDS011;67256;51.154;4.164;2024-03-02T04:09:13;3.42;;;1.17;;
76292;SDS011;67256;51.154;4.164;2024-03-02T04:11:38;6.63;;;1.52;;
76292;SDS011;67256;51.154;4.164;2024-03-02T04:14:04;3.53;;;1.00;;
76292;SDS011;67256;51.154;4.164;2024-03-02T04:16:31;2.67;;;0.80;;
76292;SDS011;67256;51.154;4.164;2024-03-02T04:18:57;3.70;;;1.15;;
76292;SDS011;67256;51.154;4.164;2024-03-02T04:21:22;2.63;;;0.80;;
76292;SDS011;67256;51.154;4.164;2024-03-02T04:23:49;4.30;;;1.08;;
76292;SDS011;67256;51.154;4.164;2024-03-02T04:26:14;4.50;;;0.80;;
76292;SDS011;67256;51.154;4.164;2024-03-02T04:28:44;1.98;;;0.90;;
76292;SDS011;67256;51.154;4.164;2024-03-02T04:31:10;4.45;;;0.85;;
76292;SDS011;67256;51.154;4.164;2024-03-02T04:33:36;4.50;;;0.85;;
76292;SDS011;67256;51.154;4.164;2024-03-02T04:36:01;2.45;;;1.02;;
76292;SDS011;67256;51.154;4.164;2024-03-02T04:38:27;4.72;;;0.95;;
76292;SDS011;67256;51.154;4.164;2024-03-02T04:40:54;2.85;;;0.93;;
76292;SDS011;67256;51.154;4.164;2024-03-02T04:43:20;6.63;;;1.30;;
76292;SDS011;67256;51.154;4.164;2024-03-02T04:45:45;5.25;;;1.33;;
76292;SDS011;67256;51.154;4.164;2024-03-02T04:48:11;1.95;;;0.90;;
76292;SDS011;67256;51.154;4.164;2024-03-02T04:50:38;2.38;;;1.00;;
76292;SDS011;67256;51.154;4.164;2024-03-02T04:53:03;5.35;;;1.45;;
76292;SDS011;67256;51.154;4.164;2024-03-02T04:55:29;4.57;;;1.15;;
76292;SDS011;67256;51.154;4.164;2024-03-02T04:58:04;3.80;;;0.93;;
76292;SDS011;67256;51.154;4.164;2024-03-02T05:00:30;4.32;;;1.05;;
76292;SDS011;67256;51.154;4.164;2024-03-02T05:02:56;3.75;;;0.95;;
76292;SDS011;67256;51.154;4.164;2024-03-02T05:05:22;4.88;;;1.40;;
76292;SDS011;67256;51.154;4.164;2024-03-02T05:07:48;2.47;;;1.00;;
76292;SDS011;67256;51.154;4.164;2024-03-02T05:10:13;5.10;;;1.75;;
76292;SDS011;67256;51.154;4.164;2024-03-02T05:12:39;4.43;;;1.42;;
76292;SDS011;67256;51.154;4.164;2024-03-02T05:15:21;6.50;;;1.15;;
76292;SDS011;67256;51.154;4.164;2024-03-02T05:17:47;3.85;;;1.05;;
76292;SDS011;67256;51.154;4.164;2024-03-02T05:20:13;5.20;;;1.05;;
76292;SDS011;67256;51.154;4.164;2024-03-02T05:22:39;7.18;;;1.00;;
76292;SDS011;67256;51.154;4.164;2024-03-02T05:25:05;5.97;;;1.17;;
76292;SDS011;67256;51.154;4.164;2024-03-02T05:27:31;4.30;;;1.20;;
76292;SDS011;67256;51.154;4.164;2024-03-02T05:29:58;4.53;;;0.93;;
76292;SDS011;67256;51.154;4.164;2024-03-02T05:32:24;6.40;;;1.08;;
76292;SDS011;67256;51.154;4.164;2024-03-02T05:34:50;6.68;;;1.27;;
76292;SDS011;67256;51.154;4.164;2024-03-02T05:37:16;3.97;;;1.15;;
76292;SDS011;67256;51.154;4.164;2024-03-02T05:39:42;2.97;;;1.30;;
76292;SDS011;67256;51.154;4.164;2024-03-02T05:42:10;5.25;;;1.40;;
76292;SDS011;67256;51.154;4.164;2024-03-02T05:44:37;2.80;;;1.17;;
76292;SDS011;67256;51.154;4.164;2024-03-02T05:47:02;5.35;;;1.60;;
76292;SDS011;67256;51.154;4.164;2024-03-02T05:49:29;5.32;;;1.08;;
76292;SDS011;67256;51.154;4.164;2024-03-02T05:51:54;3.58;;;1.20;;
76292;SDS011;67256;51.154;4.164;2024-03-02T05:54:20;3.53;;;1.05;;
76292;SDS011;67256;51.154;4.164;2024-03-02T05:56:46;9.18;;;1.50;;
76292;SDS011;67256;51.154;4.164;2024-03-02T05:59:12;4.68;;;1.38;;
76292;SDS011;67256;51.154;4.164;2024-03-02T06:01:38;5.88;;;1.27;;
76292;SDS011;67256;51.154;4.164;2024-03-02T06:04:08;7.00;;;1.10;;
76292;SDS011;67256;51.154;4.164;2024-03-02T06:06:39;5.57;;;1.20;;
76292;SDS011;67256;51.154;4.164;2024-03-02T06:09:07;7.53;;;1.45;;
76292;SDS011;67256;51.154;4.164;2024-03-02T06:11:36;4.63;;;1.05;;
76292;SDS011;67256;51.154;4.164;2024-03-02T06:14:02;3.60;;;1.35;;
76292;SDS011;67256;51.154;4.164;2024-03-02T06:16:31;3.28;;;1.00;;
76292;SDS011;67256;51.154;4.164;2024-03-02T06:18:57;3.00;;;1.10;;
76292;SDS011;67256;51.154;4.164;2024-03-02T06:21:24;6.53;;;1.73;;
76292;SDS011;67256;51.154;4.164;2024-03-02T06:23:50;3.13;;;0.90;;
76292;SDS011;67256;51.154;4.164;2024-03-02T06:26:16;4.90;;;1.25;;
76292;SDS011;67256;51.154;4.164;2024-03-02T06:28:42;5.72;;;1.55;;
76292;SDS011;67256;51.154;4.164;2024-03-02T06:31:10;3.05;;;0.95;;
76292;SDS011;67256;51.154;4.164;2024-03-02T06:33:36;7.82;;;1.10;;
76292;SDS011;67256;51.154;4.164;2024-03-02T06:36:02;3.90;;;1.10;;
76292;SDS011;67256;51.154;4.164;2024-03-02T06:38:28;5.28;;;1.15;;
76292;SDS011;67256;51.154;4.164;2024-03-02T06:40:54;4.70;;;2.20;;
76292;SDS011;67256;51.154;4.164;2024-03-02T06:43:20;5.82;;;1.35;;
76292;SDS011;67256;51.154;4.164;2024-03-02T06:45:49;9.93;;;1.48;;
76292;SDS011;67256;51.154;4.164;2024-03-02T06:48:18;5.20;;;1.35;;
76292;SDS011;67256;51.154;4.164;2024-03-02T06:50:48;7.35;;;1.60;;
76292;SDS011;67256;51.154;4.164;2024-03-02T06:53:14;4.53;;;1.67;;
76292;SDS011;67256;51.154;4.164;2024-03-02T06:55:45;5.28;;;2.08;;
76292;SDS011;67256;51.154;4.164;2024-03-02T06:58:14;4.60;;;1.33;;
76292;SDS011;67256;51.154;4.164;2024-03-02T07:00:42;3.67;;;1.17;;
76292;SDS011;67256;51.154;4.164;2024-03-02T07:03:12;3.33;;;1.27;;
76292;SDS011;67256;51.154;4.164;2024-03-02T07:05:38;5.35;;;1.38;;
76292;SDS011;67256;51.154;4.164;2024-03-02T07:08:04;4.82;;;1.65;;
76292;SDS011;67256;51.154;4.164;2024-03-02T07:10:31;6.72;;;1.73;;
76292;SDS011;67256;51.154;4.164;2024-03-02T07:12:56;6.72;;;1.80;;
76292;SDS011;67256;51.154;4.164;2024-03-02T07:15:22;5.68;;;1.08;;
76292;SDS011;67256;51.154;4.164;2024-03-02T07:18:26;5.03;;;1.42;;
76292;SDS011;67256;51.154;4.164;2024-03-02T07:20:52;5.35;;;1.42;;
76292;SDS011;67256;51.154;4.164;2024-03-02T07:23:18;9.13;;;2.72;;
76292;SDS011;67256;51.154;4.164;2024-03-02T07:25:45;7.80;;;1.58;;
76292;SDS011;67256;51.154;4.164;2024-03-02T07:28:11;6.13;;;1.60;;
76292;SDS011;67256;51.154;4.164;2024-03-02T07:30:37;8.85;;;2.00;;
76292;SDS011;67256;51.154;4.164;2024-03-02T07:33:04;4.60;;;1.20;;
76292;SDS011;67256;51.154;4.164;2024-03-02T07:35:30;5.78;;;1.15;;
76292;SDS011;67256;51.154;4.164;2024-03-02T07:37:56;11.32;;;2.33;;
76292;SDS011;67256;51.154;4.164;2024-03-02T07:40:23;9.52;;;1.67;;
76292;SDS011;67256;51.154;4.164;2024-03-02T07:42:49;4.43;;;1.35;;
76292;SDS011;67256;51.154;4.164;2024-03-02T07:45:15;4.22;;;1.35;;
76292;SDS011;67256;51.154;4.164;2024-03-02T07:47:41;6.47;;;1.80;;
76292;SDS011;67256;51.154;4.164;2024-03-02T07:50:07;5.13;;;1.75;;
76292;SDS011;67256;51.154;4.164;2024-03-02T07:52:33;5.70;;;1.20;;
76292;SDS011;67256;51.154;4.164;2024-03-02T07:54:58;4.78;;;1.55;;
76292;SDS011;67256;51.154;4.164;2024-03-02T07:57:24;3.88;;;1.27;;
76292;SDS011;67256;51.154;4.164;2024-03-02T07:59:50;5.68;;;1.48;;
76292;SDS011;67256;51.154;4.164;2024-03-02T08:02:16;11.48;;;2.65;;
76292;SDS011;67256;51.154;4.164;2024-03-02T08:04:42;7.18;;;1.85;;
76292;SDS011;67256;51.154;4.164;2024-03-02T08:07:08;7.03;;;1.40;;
76292;SDS011;67256;51.154;4.164;2024-03-02T08:09:34;9.15;;;1.60;;
76292;SDS011;67256;51.154;4.164;2024-03-02T08:12:00;5.65;;;1.35;;
76292;SDS011;67256;51.154;4.164;2024-03-02T08:14:25;8.50;;;1.70;;
76292;SDS011;67256;51.154;4.164;2024-03-02T08:16:51;11.82;;;1.80;;
76292;SDS011;67256;51.154;4.164;2024-03-02T08:19:17;6.60;;;1.33;;
76292;SDS011;67256;51.154;4.164;2024-03-02T08:21:43;4.50;;;1.30;;
76292;SDS011;67256;51.154;4.164;2024-03-02T08:24:09;7.72;;;1.42;;
76292;SDS011;67256;51.154;4.164;2024-03-02T08:26:35;7.97;;;1.65;;
76292;SDS011;67256;51.154;4.164;2024-03-02T08:29:01;5.90;;;1.60;;
76292;SDS011;67256;51.154;4.164;2024-03-02T08:31:28;3.28;;;1.35;;
76292;SDS011;67256;51.154;4.164;2024-03-02T08:33:54;7.05;;;2.05;;
76292;SDS011;67256;51.154;4.164;2024-03-02T08:36:21;8.65;;;2.35;;
76292;SDS011;67256;51.154;4.164;2024-03-02T08:38:48;8.13;;;1.88;;
76292;SDS011;67256;51.154;4.164;2024-03-02T08:41:15;14.38;;;2.72;;
76292;SDS011;67256;51.154;4.164;2024-03-02T08:43:42;8.82;;;1.58;;
76292;SDS011;67256;51.154;4.164;2024-03-02T08:46:08;9.32;;;2.30;;
76292;SDS011;67256;51.154;4.164;2024-03-02T08:48:34;16.85;;;3.00;;
76292;SDS011;67256;51.154;4.164;2024-03-02T08:50:59;10.90;;;1.92;;
76292;SDS011;67256;51.154;4.164;2024-03-02T08:53:25;9.40;;;1.70;;
76292;SDS011;67256;51.154;4.164;2024-03-02T08:55:51;10.48;;;1.77;;
76292;SDS011;67256;51.154;4.164;2024-03-02T08:58:17;8.27;;;2.45;;
76292;SDS011;67256;51.154;4.164;2024-03-02T09:00:43;5.63;;;1.98;;
76292;SDS011;67256;51.154;4.164;2024-03-02T09:03:09;11.10;;;2.35;;
76292;SDS011;67256;51.154;4.164;2024-03-02T09:05:35;6.07;;;1.40;;
76292;SDS011;67256;51.154;4.164;2024-03-02T09:08:01;7.65;;;1.45;;
76292;SDS011;67256;51.154;4.164;2024-03-02T09:10:28;7.40;;;1.77;;
76292;SDS011;67256;51.154;4.164;2024-03-02T09:12:55;6.78;;;2.13;;
76292;SDS011;67256;51.154;4.164;2024-03-02T09:15:21;6.93;;;1.60;;
76292;SDS011;67256;51.154;4.164;2024-03-02T09:17:47;9.23;;;1.70;;
76292;SDS011;67256;51.154;4.164;2024-03-02T09:20:13;11.48;;;2.35;;
76292;SDS011;67256;51.154;4.164;2024-03-02T09:22:39;5.63;;;2.03;;
76292;SDS011;67256;51.154;4.164;2024-03-02T09:25:05;8.63;;;1.50;;
76292;SDS011;67256;51.154;4.164;2024-03-02T09:27:35;10.43;;;1.77;;
76292;SDS011;67256;51.154;4.164;2024-03-02T09:30:03;6.65;;;2.42;;
76292;SDS011;67256;51.154;4.164;2024-03-02T09:32:30;10.18;;;2.35;;
76292;SDS011;67256;51.154;4.164;2024-03-02T09:34:56;7.25;;;3.05;;
76292;SDS011;67256;51.154;4.164;2024-03-02T09:37:23;6.55;;;1.42;;
76292;SDS011;67256;51.154;4.164;2024-03-02T09:39:49;8.57;;;1.67;;
76292;SDS011;67256;51.154;4.164;2024-03-02T09:42:14;12.60;;;3.38;;
76292;SDS011;67256;51.154;4.164;2024-03-02T09:44:41;8.07;;;1.75;;
76292;SDS011;67256;51.154;4.164;2024-03-02T09:47:08;7.00;;;1.92;;
76292;SDS011;67256;51.154;4.164;2024-03-02T09:49:34;5.65;;;1.60;;
76292;SDS011;67256;51.154;4.164;2024-03-02T09:52:00;8.68;;;1.85;;
76292;SDS011;67256;51.154;4.164;2024-03-02T09:54:26;8.27;;;1.80;;
76292;SDS011;67256;51.154;4.164;2024-03-02T09:56:52;9.95;;;1.90;;
76292;SDS011;67256;51.154;4.164;2024-03-02T09:59:17;10.95;;;1.90;;
76292;SDS011;67256;51.154;4.164;2024-03-02T10:02:00;5.82;;;1.60;;
76292;SDS011;67256;51.154;4.164;2024-03-02T10:04:28;13.98;;;2.22;;
76292;SDS011;67256;51.154;4.164;2024-03-02T10:09:43;7.00;;;1.55;;
76292;SDS011;67256;51.154;4.164;2024-03-02T10:12:10;8.80;;;2.08;;
76292;SDS011;67256;51.154;4.164;2024-03-02T10:14:37;5.88;;;1.95;;
76292;SDS011;67256;51.154;4.164;2024-03-02T10:19:30;8.55;;;2.13;;
76292;SDS011;67256;51.154;4.164;2024-03-02T10:22:02;7.40;;;1.63;;
76292;SDS011;67256;51.154;4.164;2024-03-02T10:27:06;9.57;;;2.13;;
76292;SDS011;67256;51.154;4.164;2024-03-02T10:29:36;8.57;;;2.15;;
76292;SDS011;67256;51.154;4.164;2024-03-02T10:32:03;12.50;;;1.85;;
76292;SDS011;67256;51.154;4.164;2024-03-02T10:34:29;10.52;;;2.13;;
76292;SDS011;67256;51.154;4.164;2024-03-02T10:36:56;10.00;;;1.80;;
76292;SDS011;67256;51.154;4.164;2024-03-02T10:39:22;13.75;;;3.05;;
76292;SDS011;67256;51.154;4.164;2024-03-02T10:41:50;5.63;;;1.92;;
76292;SDS011;67256;51.154;4.164;2024-03-02T10:44:18;12.73;;;1.80;;
76292;SDS011;67256;51.154;4.164;2024-03-02T10:46:44;10.35;;;1.90;;
76292;SDS011;67256;51.154;4.164;2024-03-02T10:49:11;10.40;;;2.00;;
76292;SDS011;67256;51.154;4.164;2024-03-02T10:51:37;13.35;;;1.85;;
76292;SDS011;67256;51.154;4.164;2024-03-02T10:54:03;8.32;;;2.72;;
76292;SDS011;67256;51.154;4.164;2024-03-02T10:56:42;12.50;;;4.13;;
76292;SDS011;67256;51.154;4.164;2024-03-02T11:02:04;10.35;;;2.15;;
76292;SDS011;67256;51.154;4.164;2024-03-02T11:04:32;12.13;;;2.42;;
76292;SDS011;67256;51.154;4.164;2024-03-02T11:07:02;11.20;;;1.77;;
76292;SDS011;67256;51.154;4.164;2024-03-02T11:09:29;8.23;;;1.85;;
76292;SDS011;67256;51.154;4.164;2024-03-02T11:12:07;7.07;;;1.67;;
76292;SDS011;67256;51.154;4.164;2024-03-02T11:14:41;7.10;;;1.67;;
76292;SDS011;67256;51.154;4.164;2024-03-02T11:17:10;8.65;;;1.42;;
76292;SDS011;67256;51.154;4.164;2024-03-02T11:19:40;5.15;;;1.80;;
76292;SDS011;67256;51.154;4.164;2024-03-02T11:22:08;11.68;;;1.92;;
76292;SDS011;67256;51.154;4.164;2024-03-02T11:24:35;8.02;;;2.38;;
76292;SDS011;67256;51.154;4.164;2024-03-02T11:27:02;10.77;;;2.20;;
76292;SDS011;67256;51.154;4.164;2024-03-02T11:34:50;5.57;;;1.52;;
76292;SDS011;67256;51.154;4.164;2024-03-02T11:37:17;9.70;;;2.08;;
76292;SDS011;67256;51.154;4.164;2024-03-02T11:39:49;6.10;;;1.83;;
76292;SDS011;67256;51.154;4.164;2024-03-02T11:42:16;8.85;;;1.85;;
76292;SDS011;67256;51.154;4.164;2024-03-02T11:44:44;12.07;;;2.95;;
76292;SDS011;67256;51.154;4.164;2024-03-02T11:47:12;10.18;;;2.05;;
76292;SDS011;67256;51.154;4.164;2024-03-02T11:52:11;9.65;;;2.42;;
76292;SDS011;67256;51.154;4.164;2024-03-02T11:54:43;8.65;;;2.20;;
76292;SDS011;67256;51.154;4.164;2024-03-02T11:57:16;7.15;;;1.85;;
76292;SDS011;67256;51.154;4.164;2024-03-02T11:59:44;9.57;;;1.92;;
76292;SDS011;67256;51.154;4.164;2024-03-02T12:02:17;9.70;;;1.65;;
76292;SDS011;67256;51.154;4.164;2024-03-02T12:04:46;9.20;;;2.17;;
76292;SDS011;67256;51.154;4.164;2024-03-02T12:07:18;7.13;;;1.73;;
76292;SDS011;67256;51.154;4.164;2024-03-02T12:09:48;7.13;;;1.40;;
76292;SDS011;67256;51.154;4.164;2024-03-02T12:12:23;6.75;;;1.67;;
76292;SDS011;67256;51.154;4.164;2024-03-02T12:14:50;10.35;;;1.83;;
76292;SDS011;67256;51.154;4.164;2024-03-02T12:17:18;10.43;;;1.70;;
76292;SDS011;67256;51.154;4.164;2024-03-02T12:19:44;14.40;;;1.98;;
76292;SDS011;67256;51.154;4.164;2024-03-02T12:22:11;8.50;;;1.85;;
76292;SDS011;67256;51.154;4.164;2024-03-02T12:24:37;8.85;;;2.30;;
76292;SDS011;67256;51.154;4.164;2024-03-02T12:27:03;8.40;;;1.52;;
76292;SDS011;67256;51.154;4.164;2024-03-02T12:29:30;9.10;;;2.42;;
76292;SDS011;67256;51.154;4.164;2024-03-02T12:31:56;5.43;;;1.67;;
76292;SDS011;67256;51.154;4.164;2024-03-02T12:34:22;4.50;;;1.38;;
76292;SDS011;67256;51.154;4.164;2024-03-02T12:36:48;4.45;;;1.48;;
76292;SDS011;67256;51.154;4.164;2024-03-02T12:39:18;10.85;;;2.13;;
76292;SDS011;67256;51.154;4.164;2024-03-02T12:41:45;5.45;;;1.35;;
76292;SDS011;67256;51.154;4.164;2024-03-02T12:44:11;5.38;;;1.20;;
76292;SDS011;67256;51.154;4.164;2024-03-02T12:46:37;5.15;;;1.30;;
76292;SDS011;67256;51.154;4.164;2024-03-02T12:49:10;3.45;;;1.33;;
76292;SDS011;67256;51.154;4.164;2024-03-02T12:51:38;6.93;;;1.35;;
76292;SDS011;67256;51.154;4.164;2024-03-02T12:54:10;9.13;;;1.67;;
76292;SDS011;67256;51.154;4.164;2024-03-02T12:56:36;7.40;;;1.50;;
76292;SDS011;67256;51.154;4.164;2024-03-02T12:59:03;11.45;;;1.75;;
76292;SDS011;67256;51.154;4.164;2024-03-02T13:01:29;6.18;;;2.03;;
76292;SDS011;67256;51.154;4.164;2024-03-02T13:03:56;10.40;;;1.70;;
76292;SDS011;67256;51.154;4.164;2024-03-02T13:06:23;6.20;;;1.52;;
76292;SDS011;67256;51.154;4.164;2024-03-02T13:08:52;4.07;;;1.20;;
76292;SDS011;67256;51.154;4.164;2024-03-02T13:11:18;5.55;;;1.30;;
76292;SDS011;67256;51.154;4.164;2024-03-02T13:13:45;7.43;;;1.40;;
76292;SDS011;67256;51.154;4.164;2024-03-02T13:16:12;4.88;;;1.52;;
76292;SDS011;67256;51.154;4.164;2024-03-02T13:18:38;6.03;;;1.30;;
76292;SDS011;67256;51.154;4.164;2024-03-02T13:23:34;6.03;;;1.40;;
76292;SDS011;67256;51.154;4.164;2024-03-02T13:26:00;7.13;;;1.50;;
76292;SDS011;67256;51.154;4.164;2024-03-02T13:28:26;6.47;;;1.30;;
76292;SDS011;67256;51.154;4.164;2024-03-02T13:30:52;3.95;;;1.30;;
76292;SDS011;67256;51.154;4.164;2024-03-02T13:33:18;4.68;;;1.75;;
76292;SDS011;67256;51.154;4.164;2024-03-02T13:35:53;6.82;;;1.17;;
76292;SDS011;67256;51.154;4.164;2024-03-02T13:38:19;5.22;;;1.58;;
76292;SDS011;67256;51.154;4.164;2024-03-02T13:40:45;8.45;;;1.45;;
76292;SDS011;67256;51.154;4.164;2024-03-02T13:43:16;3.25;;;0.90;;
76292;SDS011;67256;51.154;4.164;2024-03-02T13:45:42;3.75;;;1.15;;
76292;SDS011;67256;51.154;4.164;2024-03-02T13:48:08;3.53;;;1.08;;
76292;SDS011;67256;51.154;4.164;2024-03-02T13:50:33;10.48;;;1.50;;
76292;SDS011;67256;51.154;4.164;2024-03-02T13:53:00;6.80;;;1.45;;
76292;SDS011;67256;51.154;4.164;2024-03-02T13:55:26;5.68;;;1.20;;
76292;SDS011;67256;51.154;4.164;2024-03-02T13:57:52;9.75;;;2.10;;
76292;SDS011;67256;51.154;4.164;2024-03-02T14:00:18;5.95;;;1.42;;
76292;SDS011;67256;51.154;4.164;2024-03-02T14:02:47;7.25;;;1.40;;
76292;SDS011;67256;51.154;4.164;2024-03-02T14:05:16;5.43;;;1.40;;
76292;SDS011;67256;51.154;4.164;2024-03-02T14:07:42;3.90;;;0.98;;
76292;SDS011;67256;51.154;4.164;2024-03-02T14:10:09;6.60;;;1.38;;
76292;SDS011;67256;51.154;4.164;2024-03-02T14:12:35;5.60;;;1.40;;
76292;SDS011;67256;51.154;4.164;2024-03-02T14:15:02;6.63;;;1.55;;
76292;SDS011;67256;51.154;4.164;2024-03-02T14:17:28;4.50;;;1.25;;
76292;SDS011;67256;51.154;4.164;2024-03-02T14:19:56;5.35;;;1.45;;
76292;SDS011;67256;51.154;4.164;2024-03-02T14:22:24;5.03;;;1.17;;
76292;SDS011;67256;51.154;4.164;2024-03-02T14:24:50;4.22;;;1.40;;
76292;SDS011;67256;51.154;4.164;2024-03-02T14:27:16;4.05;;;1.20;;
76292;SDS011;67256;51.154;4.164;2024-03-02T14:29:42;2.65;;;0.75;;
76292;SDS011;67256;51.154;4.164;2024-03-02T14:32:08;5.38;;;1.13;;
76292;SDS011;67256;51.154;4.164;2024-03-02T14:34:34;4.60;;;1.63;;
76292;SDS011;67256;51.154;4.164;2024-03-02T14:37:00;4.55;;;1.50;;
76292;SDS011;67256;51.154;4.164;2024-03-02T14:39:26;4.53;;;1.05;;
76292;SDS011;67256;51.154;4.164;2024-03-02T14:41:53;3.63;;;1.27;;
76292;SDS011;67256;51.154;4.164;2024-03-02T14:44:21;7.80;;;1.70;;
76292;SDS011;67256;51.154;4.164;2024-03-02T14:46:47;5.85;;;1.30;;
76292;SDS011;67256;51.154;4.164;2024-03-02T14:49:13;7.25;;;1.85;;
76292;SDS011;67256;51.154;4.164;2024-03-02T14:51:39;6.57;;;1.90;;
76292;SDS011;67256;51.154;4.164;2024-03-02T14:54:05;7.72;;;1.90;;
76292;SDS011;67256;51.154;4.164;2024-03-02T14:56:31;5.03;;;1.10;;
76292;SDS011;67256;51.154;4.164;2024-03-02T14:58:57;2.63;;;1.05;;
76292;SDS011;67256;51.154;4.164;2024-03-02T15:01:23;5.55;;;1.30;;
76292;SDS011;67256;51.154;4.164;2024-03-02T15:03:49;3.47;;;1.23;;
76292;SDS011;67256;51.154;4.164;2024-03-02T15:06:15;4.45;;;0.90;;
76292;SDS011;67256;51.154;4.164;2024-03-02T15:08:42;4.22;;;1.00;;
76292;SDS011;67256;51.154;4.164;2024-03-02T15:11:08;6.20;;;1.30;;
76292;SDS011;67256;51.154;4.164;2024-03-02T15:13:34;2.90;;;1.40;;
76292;SDS011;67256;51.154;4.164;2024-03-02T15:16:00;6.68;;;1.50;;
76292;SDS011;67256;51.154;4.164;2024-03-02T15:18:26;4.90;;;1.30;;